Time;durP1;ratioP1;P1;durP2;ratioP2;P2;SDS_P1;SDS_P2;PMS_P1;PMS_P2;Temp;Humidity;BMP_temperature;BMP_pressure;BME280_temperature;BME280_humidity;BME280_pressure;Samples;Min_cycle;Max_cycle;Signal;HPM_P1;HPM_P2
2021/08/31 00:02:05;;;;;;;22.85;9.75;;;;;;;13.96;100.00;102556.16;4940362;28;20051;-70
2021/08/31 00:04:34;;;;;;;25.48;10.13;;;;;;;13.97;100.00;102556.16;4941211;28;20101;-71
2021/08/31 00:07:03;;;;;;;23.52;8.57;;;;;;;14.04;100.00;102564.09;4941354;28;20051;-70
2021/08/31 00:09:31;;;;;;;22.35;10.70;;;;;;;13.98;100.00;102559.72;4938372;28;20062;-70
2021/08/31 00:11:59;;;;;;;19.73;9.18;;;;;;;13.98;100.00;102570.47;4943124;28;20435;-73
2021/08/31 00:14:27;;;;;;;20.20;9.40;;;;;;;13.95;100.00;102560.66;4939816;28;20051;-70
2021/08/31 00:16:55;;;;;;;22.20;9.40;;;;;;;13.96;100.00;102561.53;4944362;28;20061;-71
2021/08/31 00:19:23;;;;;;;16.98;9.13;;;;;;;13.95;100.00;102563.34;4941033;28;20510;-69
2021/08/31 00:21:52;;;;;;;20.85;9.20;;;;;;;13.88;100.00;102561.69;4940686;28;20155;-69
2021/08/31 00:24:22;;;;;;;24.00;9.95;;;;;;;13.88;100.00;102561.69;4941546;28;20055;-69
2021/08/31 00:26:49;;;;;;;21.00;9.07;;;;;;;13.86;100.00;102565.31;4941428;28;20101;-69
2021/08/31 00:29:17;;;;;;;22.48;9.82;;;;;;;13.84;100.00;102570.69;4941186;28;20174;-68
2021/08/31 00:31:45;;;;;;;21.70;9.82;;;;;;;13.86;100.00;102568.91;4939508;28;20085;-68
2021/08/31 00:34:13;;;;;;;20.77;10.27;;;;;;;13.91;100.00;102569.69;4941915;28;20039;-69
2021/08/31 00:36:40;;;;;;;23.95;10.75;;;;;;;13.89;100.00;102579.53;4941410;28;20579;-68
2021/08/31 00:39:09;;;;;;;20.42;9.18;;;;;;;13.87;100.00;102570.66;4939252;28;20186;-71
2021/08/31 00:41:37;;;;;;;20.85;9.52;;;;;;;13.88;100.00;102579.59;4940651;28;20063;-69
2021/08/31 00:44:06;;;;;;;24.77;10.32;;;;;;;13.86;100.00;102573.34;4942074;28;20062;-69
2021/08/31 00:46:33;;;;;;;23.38;10.52;;;;;;;13.86;100.00;102578.72;4940631;28;20055;-70
2021/08/31 00:49:01;;;;;;;24.88;10.00;;;;;;;13.92;100.00;102573.25;4938980;28;20117;-70
2021/08/31 00:51:29;;;;;;;21.58;9.32;;;;;;;13.92;100.00;102584.00;4939871;28;20464;-70
2021/08/31 00:53:58;;;;;;;23.13;10.90;;;;;;;13.96;100.00;102580.31;4939340;28;20053;-68
2021/08/31 00:56:27;;;;;;;20.05;9.60;;;;;;;13.89;100.00;102582.22;4939735;28;20436;-70
2021/08/31 00:58:54;;;;;;;22.70;9.45;;;;;;;13.88;100.00;102576.91;4941470;28;20118;-69
2021/08/31 01:01:22;;;;;;;18.67;9.77;;;;;;;13.82;100.00;102581.50;4939777;28;20130;-70
2021/08/31 01:03:51;;;;;;;21.48;10.18;;;;;;;13.84;100.00;102584.13;4940206;28;20141;-69
2021/08/31 01:06:18;;;;;;;22.73;10.73;;;;;;;13.85;100.00;102583.22;4939377;28;20047;-68
2021/08/31 01:08:46;;;;;;;24.30;9.98;;;;;;;13.80;100.00;102583.28;4941048;28;20054;-68
2021/08/31 01:11:16;;;;;;;25.27;9.95;;;;;;;13.79;100.00;102586.00;4939316;28;20050;-70
2021/08/31 01:13:45;;;;;;;23.35;10.07;;;;;;;13.75;100.00;102586.97;4940265;28;20126;-68
2021/08/31 01:16:13;;;;;;;20.73;11.63;;;;;;;13.73;100.00;102591.50;4939859;28;20047;-68
2021/08/31 01:18:42;;;;;;;22.85;9.50;;;;;;;13.75;100.00;102586.97;4938424;28;20400;-67
2021/08/31 01:21:11;;;;;;;23.17;10.35;;;;;;;13.73;100.00;102589.69;4939856;28;20047;-66
2021/08/31 01:23:46;;;;;;;21.92;9.80;;;;;;;13.72;100.00;102587.91;4938874;28;20114;-68
2021/08/31 01:26:16;;;;;;;20.63;9.85;;;;;;;13.68;100.00;102588.00;4940369;28;20543;-69
2021/08/31 01:28:44;;;;;;;23.65;10.57;;;;;;;13.67;100.00;102587.09;4938807;28;20323;-66
2021/08/31 01:31:12;;;;;;;21.52;10.45;;;;;;;13.62;100.00;102595.25;4938171;28;20239;-68
2021/08/31 01:33:40;;;;;;;19.45;9.70;;;;;;;13.59;100.00;102599.78;4938713;28;20058;-66
2021/08/31 01:36:20;;;;;;;26.77;10.93;;;;;;;13.57;100.00;102605.16;4940643;28;20058;-67
2021/08/31 01:38:48;;;;;;;20.70;10.13;;;;;;;13.58;100.00;102606.91;4940317;28;20074;-69
2021/08/31 01:41:18;;;;;;;21.23;9.90;;;;;;;13.54;100.00;102602.53;4939616;28;20055;-69
2021/08/31 01:43:46;;;;;;;24.80;10.63;;;;;;;13.55;100.00;102603.41;4943725;28;20047;-70
2021/08/31 01:46:14;;;;;;;20.50;10.52;;;;;;;13.49;100.00;102604.41;4939817;28;20098;-68
2021/08/31 01:48:42;;;;;;;20.85;9.65;;;;;;;13.45;100.00;102608.06;4947573;28;20058;-70
2021/08/31 01:51:10;;;;;;;23.05;9.18;;;;;;;13.44;100.00;102604.47;4938773;28;20500;-71
2021/08/31 01:53:38;;;;;;;20.05;9.68;;;;;;;13.45;100.00;102610.72;4940077;28;20055;-68
2021/08/31 01:56:05;;;;;;;21.77;10.32;;;;;;;13.49;100.00;102608.88;4941034;28;20440;-68
2021/08/31 01:58:34;;;;;;;25.23;9.85;;;;;;;13.47;100.00;102613.38;4937761;28;20039;-69
2021/08/31 02:01:03;;;;;;;24.80;10.35;;;;;;;13.42;100.00;102606.28;4940039;28;20262;-68
2021/08/31 02:03:31;;;;;;;22.17;9.88;;;;;;;13.47;100.00;102616.03;4938580;28;20082;-68
2021/08/31 02:05:59;;;;;;;27.65;10.95;;;;;;;13.51;100.00;102609.75;4940412;28;20404;-71
2021/08/31 02:08:27;;;;;;;19.15;9.80;;;;;;;13.57;100.00;102606.94;4938958;28;20747;-69
2021/08/31 02:10:55;;;;;;;25.52;9.88;;;;;;;13.54;100.00;102607.00;4937454;28;20300;-70
2021/08/31 02:13:22;;;;;;;21.77;9.13;;;;;;;13.54;100.00;102607.00;4941628;28;20050;-69
2021/08/31 02:15:52;;;;;;;22.38;9.07;;;;;;;13.58;100.00;102612.28;4938270;28;20059;-70
2021/08/31 02:18:20;;;;;;;25.42;10.65;;;;;;;13.63;100.00;102610.41;4940556;28;20059;-69
2021/08/31 02:20:48;;;;;;;18.17;9.25;;;;;;;13.59;100.00;102607.81;4938829;28;20353;-69
2021/08/31 02:23:15;;;;;;;22.27;9.90;;;;;;;13.53;100.00;102606.09;4941977;28;20058;-69
2021/08/31 02:25:43;;;;;;;25.60;9.50;;;;;;;13.58;100.00;102608.72;4936715;28;20469;-69
2021/08/31 02:28:11;;;;;;;19.20;9.43;;;;;;;13.56;100.00;102611.44;4938641;28;20106;-69
2021/08/31 02:30:39;;;;;;;20.95;8.45;;;;;;;13.58;100.00;102609.59;4939312;28;20035;-69
2021/08/31 02:33:08;;;;;;;18.00;8.55;;;;;;;13.61;100.00;102608.69;4937910;28;20051;-69
2021/08/31 02:35:36;;;;;;;22.70;9.77;;;;;;;13.58;100.00;102606.91;4939378;28;20122;-69
2021/08/31 02:38:04;;;;;;;18.67;8.82;;;;;;;13.56;100.00;102602.50;4940915;28;20054;-70
2021/08/31 02:40:32;;;;;;;21.70;8.93;;;;;;;13.55;100.00;102598.94;4943373;28;20051;-68
2021/08/31 02:43:00;;;;;;;17.70;9.05;;;;;;;13.52;100.00;102604.34;4939530;28;20051;-69
2021/08/31 02:45:27;;;;;;;19.30;8.98;;;;;;;13.48;100.00;102599.06;4940983;28;20153;-69
2021/08/31 02:47:55;;;;;;;24.10;9.77;;;;;;;13.45;100.00;102600.00;4942302;28;20057;-69
2021/08/31 02:50:25;;;;;;;22.67;8.52;;;;;;;13.41;100.00;102601.81;4942950;28;20058;-69
2021/08/31 02:52:53;;;;;;;21.20;9.60;;;;;;;13.38;100.00;102596.53;4943237;28;20075;-68
2021/08/31 02:55:20;;;;;;;22.33;10.00;;;;;;;13.36;100.00;102601.00;4943177;28;20134;-69
2021/08/31 02:57:48;;;;;;;28.58;10.57;;;;;;;13.29;100.00;102593.94;4942132;28;20661;-69
2021/08/31 03:00:19;;;;;;;23.13;9.90;;;;;;;13.29;100.00;102595.75;4941824;28;20070;-69
2021/08/31 03:02:47;;;;;;;18.10;9.25;;;;;;;13.25;100.00;102598.47;4943076;28;20047;-66
2021/08/31 03:05:15;;;;;;;20.80;10.20;;;;;;;13.24;100.00;102598.50;4941556;28;20051;-66
2021/08/31 03:07:44;;;;;;;24.33;10.25;;;;;;;13.22;100.00;102605.69;4942744;28;20625;-67
2021/08/31 03:10:12;;;;;;;19.23;9.63;;;;;;;13.18;100.00;102603.97;4942778;28;20055;-66
2021/08/31 03:12:40;;;;;;;24.70;10.98;;;;;;;13.22;100.00;102605.69;4942648;28;20051;-66
2021/08/31 03:15:08;;;;;;;22.02;9.70;;;;;;;13.17;100.00;102602.19;4944969;28;20110;-67
2021/08/31 03:17:36;;;;;;;19.30;9.80;;;;;;;13.17;100.00;102602.19;4943740;28;20372;-67
2021/08/31 03:20:05;;;;;;;20.50;8.70;;;;;;;13.16;100.00;102606.66;4943929;28;20098;-67
2021/08/31 03:22:33;;;;;;;23.25;9.68;;;;;;;13.11;100.00;102602.25;4943026;28;20047;-69
2021/08/31 03:25:02;;;;;;;20.90;9.88;;;;;;;13.11;100.00;102602.25;4943256;28;20050;-66
2021/08/31 03:27:34;;;;;;;20.83;8.73;;;;;;;13.07;100.00;102604.97;4942345;28;20043;-66
2021/08/31 03:30:02;;;;;;;27.13;9.68;;;;;;;13.05;100.00;102601.44;4941236;28;20047;-66
2021/08/31 03:32:33;;;;;;;18.25;8.85;;;;;;;13.05;100.00;102595.22;4942909;28;20138;-69
2021/08/31 03:35:04;;;;;;;;;;;;;;;13.01;100.00;102607.78;4943467;28;20059;-69
2021/08/31 03:37:32;;;;;;;24.65;9.50;;;;;;;13.01;100.00;102613.13;4942883;28;19930;-66
2021/08/31 03:40:00;;;;;;;21.30;10.43;;;;;;;12.98;100.00;102610.50;4940859;28;20150;-66
2021/08/31 03:42:29;;;;;;;25.73;10.48;;;;;;;12.97;100.00;102616.75;4941432;28;20047;-66
2021/08/31 03:44:56;;;;;;;21.50;9.95;;;;;;;12.97;100.00;102626.59;4938923;28;20070;-66
2021/08/31 03:47:27;;;;;;;21.42;10.15;;;;;;;12.92;100.00;102607.88;4940893;28;20065;-66
2021/08/31 03:49:54;;;;;;;21.27;9.27;;;;;;;12.93;100.00;102616.81;4943218;28;20061;-66
2021/08/31 03:52:22;;;;;;;24.20;10.77;;;;;;;12.93;100.00;102619.50;4943012;28;20055;-66
2021/08/31 03:54:50;;;;;;;20.45;9.70;;;;;;;12.87;100.00;102618.69;4942163;28;20109;-66
2021/08/31 03:57:18;;;;;;;19.63;9.57;;;;;;;12.83;100.00;102611.56;4939545;28;20571;-67
2021/08/31 03:59:47;;;;;;;21.50;10.25;;;;;;;12.83;100.00;102614.25;4941821;28;20114;-66
2021/08/31 04:02:15;;;;;;;23.90;9.70;;;;;;;12.80;100.00;102616.97;4941932;28;20047;-66
2021/08/31 04:04:43;;;;;;;20.80;9.10;;;;;;;12.77;100.00;102614.34;4941736;28;20057;-66
2021/08/31 04:07:11;;;;;;;23.13;9.95;;;;;;;12.74;100.00;102614.38;4940342;28;20058;-66
2021/08/31 04:09:38;;;;;;;21.48;9.00;;;;;;;12.75;100.00;102615.25;4941957;28;20075;-66
2021/08/31 04:12:07;;;;;;;21.38;9.68;;;;;;;12.73;100.00;102627.78;4942570;28;20059;-65
2021/08/31 04:14:35;;;;;;;19.45;8.70;;;;;;;12.69;100.00;102635.00;4941855;28;20050;-65
2021/08/31 04:17:04;;;;;;;18.67;10.10;;;;;;;12.70;100.00;102637.66;4939246;28;20051;-65
2021/08/31 04:19:32;;;;;;;23.35;10.07;;;;;;;12.71;100.00;102636.72;4939054;28;20157;-66
2021/08/31 04:22:01;;;;;;;18.40;9.65;;;;;;;12.71;100.00;102631.38;4937220;28;20448;-68
2021/08/31 04:24:29;;;;;;;18.83;9.73;;;;;;;12.70;100.00;102645.69;4940462;28;20095;-65
2021/08/31 04:26:57;;;;;;;20.30;9.90;;;;;;;12.71;100.00;102644.75;4939729;28;20050;-65
2021/08/31 04:29:25;;;;;;;19.38;9.85;;;;;;;12.73;100.00;102649.22;4940385;28;20098;-65
2021/08/31 04:31:53;;;;;;;22.05;9.80;;;;;;;12.73;100.00;102655.47;4940164;28;20137;-66
2021/08/31 04:34:22;;;;;;;24.88;11.43;;;;;;;12.76;100.00;102649.19;4940496;28;20055;-65
2021/08/31 04:36:50;;;;;;;21.48;10.05;;;;;;;12.75;100.00;102653.63;4939404;28;20067;-68
2021/08/31 04:39:18;;;;;;;22.70;9.40;;;;;;;12.77;100.00;102653.63;4940249;28;20920;-66
2021/08/31 04:41:45;;;;;;;21.95;9.15;;;;;;;12.80;100.00;102656.28;4940627;28;20487;-65
2021/08/31 04:44:14;;;;;;;19.92;9.07;;;;;;;12.83;100.00;102648.19;4939290;28;20082;-65
2021/08/31 04:46:41;;;;;;;21.55;9.73;;;;;;;12.86;100.00;102648.16;4937966;28;20058;-68
2021/08/31 04:49:09;;;;;;;16.48;9.48;;;;;;;12.89;100.00;102634.75;4942044;28;20051;-69
2021/08/31 04:51:38;;;;;;;22.00;9.25;;;;;;;12.87;100.00;102642.78;4939077;28;20055;-68
2021/08/31 04:54:08;;;;;;;21.77;10.32;;;;;;;12.96;100.00;102646.25;4938077;28;20047;-69
2021/08/31 04:56:35;;;;;;;23.23;9.50;;;;;;;12.96;100.00;102646.25;4939486;28;20122;-67
2021/08/31 04:59:03;;;;;;;22.08;9.63;;;;;;;12.97;100.00;102648.00;4940710;28;20047;-67
2021/08/31 05:01:31;;;;;;;17.38;8.18;;;;;;;12.97;100.00;102650.69;4942529;28;20122;-67
2021/08/31 05:03:59;;;;;;;20.60;9.35;;;;;;;12.95;100.00;102644.47;4941153;28;20146;-67
2021/08/31 05:06:27;;;;;;;23.27;9.27;;;;;;;12.91;100.00;102645.44;4935873;28;20178;-67
2021/08/31 05:08:56;;;;;;;20.85;8.82;;;;;;;12.87;100.00;102645.47;4937156;28;20109;-67
2021/08/31 05:11:23;;;;;;;17.33;8.38;;;;;;;12.84;100.00;102650.88;4940754;28;20047;-67
2021/08/31 05:13:51;;;;;;;20.40;10.40;;;;;;;12.84;100.00;102655.34;4939990;28;20527;-67
2021/08/31 05:16:20;;;;;;;19.17;9.80;;;;;;;12.81;100.00;102650.91;4938496;28;20055;-69
2021/08/31 05:18:48;;;;;;;19.17;8.57;;;;;;;12.82;100.00;102660.72;4940675;28;20138;-68
2021/08/31 05:21:16;;;;;;;20.77;9.45;;;;;;;12.83;100.00;102664.28;4940798;28;20055;-67
2021/08/31 05:23:44;;;;;;;16.65;8.77;;;;;;;12.85;100.00;102666.00;4939683;28;20051;-69
2021/08/31 05:26:13;;;;;;;22.33;10.30;;;;;;;12.85;100.00;102667.81;4940174;28;20394;-68
2021/08/31 05:28:41;;;;;;;24.45;10.27;;;;;;;12.82;100.00;102671.44;4935434;28;20083;-68
2021/08/31 05:31:10;;;;;;;17.73;9.45;;;;;;;12.81;100.00;102669.66;4939222;28;20079;-68
2021/08/31 05:33:38;;;;;;;19.92;9.50;;;;;;;12.85;100.00;102668.69;4940958;28;20063;-68
2021/08/31 05:36:06;;;;;;;19.38;8.95;;;;;;;12.89;100.00;102673.13;4939523;28;20066;-68
2021/08/31 05:38:34;;;;;;;21.58;9.98;;;;;;;12.98;100.00;102672.13;4938607;28;20063;-68
2021/08/31 05:41:02;;;;;;;25.40;10.30;;;;;;;13.07;100.00;102677.34;4939232;28;20050;-68
2021/08/31 05:43:31;;;;;;;22.15;10.10;;;;;;;13.14;100.00;102680.81;4938694;28;20058;-68
2021/08/31 05:45:59;;;;;;;20.42;10.68;;;;;;;13.28;100.00;102675.31;4941372;28;20430;-68
2021/08/31 05:48:27;;;;;;;22.13;10.05;;;;;;;13.35;100.00;102679.69;4937103;28;20050;-68
2021/08/31 05:50:54;;;;;;;19.88;10.00;;;;;;;13.52;100.00;102681.22;4938150;28;20046;-68
2021/08/31 05:53:22;;;;;;;23.15;10.45;;;;;;;13.63;100.00;102688.19;4938967;28;20109;-70
2021/08/31 05:55:50;;;;;;;23.70;10.90;;;;;;;13.79;100.00;102691.53;4942538;28;20134;-71
2021/08/31 05:58:18;;;;;;;25.95;10.35;;;;;;;13.93;100.00;102694.00;4941020;28;20480;-68
2021/08/31 06:00:47;;;;;;;21.40;10.88;;;;;;;14.10;100.00;102696.38;4937695;28;20086;-67
2021/08/31 06:03:15;;;;;;;25.42;11.23;;;;;;;14.20;100.00;102689.94;4937901;28;20433;-67
2021/08/31 06:05:42;;;;;;;22.25;10.18;;;;;;;14.38;100.00;102698.56;4937324;28;20058;-68
2021/08/31 06:08:10;;;;;;;23.08;9.50;;;;;;;14.59;100.00;102701.78;4940562;28;20431;-68
2021/08/31 06:10:41;;;;;;;20.45;9.10;;;;;;;14.74;100.00;102705.09;4936452;28;20047;-68
2021/08/31 06:13:09;;;;;;;23.70;9.48;;;;;;;14.83;100.00;102701.31;4942069;28;20098;-67
2021/08/31 06:15:37;;;;;;;26.58;10.43;;;;;;;14.98;99.92;102704.59;4936288;28;20070;-67
2021/08/31 06:18:06;;;;;;;19.23;8.82;;;;;;;15.11;99.37;102700.72;4938576;28;20098;-68
2021/08/31 06:20:34;;;;;;;15.60;8.75;;;;;;;15.32;99.19;102704.75;4944328;28;20917;-72
2021/08/31 06:23:02;;;;;;;20.05;8.27;;;;;;;15.39;97.30;102705.50;4946047;28;20118;-73
2021/08/31 06:25:30;;;;;;;18.75;7.65;;;;;;;15.50;97.47;102715.09;4946110;28;20412;-72
2021/08/31 06:27:58;;;;;;;15.68;7.85;;;;;;;15.62;95.79;102713.03;4942457;28;20048;-72
2021/08/31 06:30:26;;;;;;;18.02;7.90;;;;;;;15.84;95.83;102716.13;4946721;28;20062;-71
2021/08/31 06:32:54;;;;;;;14.35;7.07;;;;;;;15.97;94.77;102720.31;4944425;28;20298;-71
2021/08/31 06:35:23;;;;;;;16.10;7.20;;;;;;;16.07;93.70;102720.94;4947116;28;20709;-68
2021/08/31 06:37:51;;;;;;;15.00;7.25;;;;;;;16.12;92.70;102721.69;4945565;28;20530;-68
2021/08/31 06:40:19;;;;;;;18.33;7.32;;;;;;;16.40;92.35;102715.63;4946105;28;20114;-68
2021/08/31 06:42:47;;;;;;;15.20;6.47;;;;;;;16.59;91.86;102722.25;4945813;28;20075;-68
2021/08/31 06:45:15;;;;;;;17.67;7.18;;;;;;;16.54;90.49;102715.22;4946588;28;20059;-68
2021/08/31 06:47:42;;;;;;;13.77;6.32;;;;;;;16.86;90.12;102718.88;4944411;28;20105;-68
2021/08/31 06:50:15;;;;;;;19.85;7.10;;;;;;;16.77;89.19;102722.66;4942869;28;20053;-68
2021/08/31 06:52:45;;;;;;;13.88;6.70;;;;;;;16.94;88.53;102722.22;4942922;28;20075;-68
2021/08/31 06:55:13;;;;;;;15.90;6.18;;;;;;;17.07;87.33;102720.06;4944680;28;20051;-68
2021/08/31 06:57:42;;;;;;;21.40;7.63;;;;;;;17.27;87.10;102723.03;4945736;28;20039;-68
2021/08/31 07:00:10;;;;;;;19.60;6.30;;;;;;;17.41;86.47;102719.03;4946830;28;20505;-71
2021/08/31 07:02:38;;;;;;;19.00;6.50;;;;;;;17.63;86.20;102722.81;4943802;28;20047;-72
2021/08/31 07:05:07;;;;;;;15.68;5.93;;;;;;;17.69;85.52;102724.41;4943156;28;20150;-72
2021/08/31 07:07:34;;;;;;;13.90;5.95;;;;;;;17.62;84.33;102721.06;4943239;28;20055;-72
2021/08/31 07:10:04;;;;;;;18.13;6.57;;;;;;;17.81;83.27;102717.75;4946298;28;20169;-72
2021/08/31 07:12:32;;;;;;;16.48;6.13;;;;;;;17.69;83.04;102721.72;4944448;28;20047;-72
2021/08/31 07:15:00;;;;;;;14.18;6.03;;;;;;;17.73;83.03;102726.97;4944954;28;20042;-72
2021/08/31 07:17:28;;;;;;;15.10;5.90;;;;;;;17.98;81.70;102728.00;4943943;28;20051;-72
2021/08/31 07:19:55;;;;;;;18.48;5.88;;;;;;;17.95;81.32;102728.16;4943033;28;20142;-72
2021/08/31 07:22:23;;;;;;;13.65;5.60;;;;;;;18.14;81.12;102726.56;4947200;28;20062;-72
2021/08/31 07:24:51;;;;;;;16.30;6.05;;;;;;;18.18;80.98;102730.06;4943433;28;20058;-72
2021/08/31 07:27:21;;;;;;;18.02;6.60;;;;;;;18.21;80.70;102730.81;4945911;28;20051;-72
2021/08/31 07:29:48;;;;;;;12.38;5.78;;;;;;;18.65;81.01;102727.50;4942008;28;20062;-73
2021/08/31 07:32:16;;;;;;;15.27;6.15;;;;;;;18.70;78.61;102732.75;4941170;28;20789;-72
2021/08/31 07:34:44;;;;;;;21.50;6.53;;;;;;;18.98;78.60;102727.22;4941088;28;20055;-71
2021/08/31 07:37:12;;;;;;;16.58;6.10;;;;;;;18.79;77.90;102732.41;4941366;28;20495;-72
2021/08/31 07:39:41;;;;;;;15.05;5.57;;;;;;;19.20;77.13;102732.69;4940939;28;20051;-72
2021/08/31 07:42:09;;;;;;;16.70;5.72;;;;;;;19.19;76.34;102723.69;4939081;28;20463;-72
2021/08/31 07:44:38;;;;;;;17.23;6.20;;;;;;;19.13;75.62;102728.47;4939167;28;20055;-71
2021/08/31 07:47:06;;;;;;;16.05;5.78;;;;;;;18.93;76.57;102734.63;4939610;28;20555;-72
2021/08/31 07:49:34;;;;;;;16.75;5.57;;;;;;;18.85;76.32;102724.97;4941098;28;20047;-71
2021/08/31 07:52:02;;;;;;;18.63;6.18;;;;;;;19.16;75.97;102725.66;4939397;28;20055;-71
2021/08/31 07:54:30;;;;;;;15.68;5.30;;;;;;;19.09;74.04;102727.69;4938035;28;20120;-72
2021/08/31 07:56:58;;;;;;;14.73;5.97;;;;;;;19.06;74.27;102735.06;4943570;28;20051;-70
2021/08/31 07:59:26;;;;;;;14.65;5.53;;;;;;;19.64;73.79;102735.47;4937488;28;20055;-70
2021/08/31 08:01:55;;;;;;;12.35;5.13;;;;;;;19.77;72.04;102735.91;4936568;28;20461;-68
2021/08/31 08:04:23;;;;;;;14.32;4.93;;;;;;;19.75;71.57;102733.25;4936394;28;20636;-68
2021/08/31 08:06:51;;;;;;;12.02;5.32;;;;;;;19.38;71.69;102736.53;4935657;28;20152;-68
2021/08/31 08:09:19;;;;;;;18.90;6.68;;;;;;;20.07;71.50;102738.25;4940392;28;20094;-68
2021/08/31 08:11:47;;;;;;;15.05;5.53;;;;;;;19.91;70.87;102743.44;4941087;28;20492;-68
2021/08/31 08:14:15;;;;;;;16.88;6.13;;;;;;;19.62;71.15;102750.91;4939482;28;20471;-68
2021/08/31 08:16:42;;;;;;;16.90;5.32;;;;;;;19.90;70.23;102747.09;4941283;28;20047;-68
2021/08/31 08:19:15;;;;;;;14.85;5.75;;;;;;;20.13;69.38;102744.31;4940308;28;20047;-68
2021/08/31 08:21:43;;;;;;;12.55;4.78;;;;;;;20.25;68.93;102750.16;4939804;28;20136;-68
2021/08/31 08:24:10;;;;;;;12.70;5.10;;;;;;;19.56;69.74;102752.03;4940827;28;20050;-68
2021/08/31 08:26:39;;;;;;;12.70;5.05;;;;;;;19.47;69.74;102754.22;4940416;28;20059;-68
2021/08/31 08:29:06;;;;;;;12.23;5.30;;;;;;;19.01;71.87;102746.91;4940265;28;20057;-68
2021/08/31 08:31:35;;;;;;;15.90;4.80;;;;;;;18.92;72.66;102754.50;4939558;28;20554;-68
2021/08/31 08:34:03;;;;;;;17.10;5.55;;;;;;;19.71;70.60;102750.50;4940573;28;20062;-68
2021/08/31 08:36:32;;;;;;;15.27;5.28;;;;;;;20.04;68.86;102752.84;4937685;28;20551;-68
2021/08/31 08:39:00;;;;;;;13.70;4.97;;;;;;;20.46;68.13;102757.34;4942632;28;20090;-68
2021/08/31 08:41:28;;;;;;;15.63;5.38;;;;;;;20.50;67.28;102759.00;4936995;28;20134;-68
2021/08/31 08:44:00;;;;;;;14.88;5.30;;;;;;;20.84;66.64;102756.63;4941138;28;20073;-68
2021/08/31 08:46:29;;;;;;;15.07;5.10;;;;;;;20.97;65.72;102759.69;4940373;28;20068;-70
2021/08/31 08:48:58;;;;;;;14.55;5.38;;;;;;;20.82;64.89;102762.16;4941931;28;20070;-67
2021/08/31 08:51:35;;;;;;;11.48;5.00;;;;;;;20.84;64.77;102762.94;4940718;28;20491;-68
2021/08/31 08:54:06;;;;;;;15.13;5.63;;;;;;;20.58;64.73;102766.78;4941904;28;20553;-67
2021/08/31 08:56:35;;;;;;;10.77;4.82;;;;;;;20.36;64.66;102761.41;4943771;28;20088;-67
2021/08/31 08:59:03;;;;;;;11.02;5.22;;;;;;;20.25;66.18;102763.72;4939367;28;20051;-67
2021/08/31 09:01:40;;;;;;;14.57;6.10;;;;;;;20.68;65.16;102761.88;4942543;28;20098;-67
2021/08/31 09:04:09;;;;;;;18.83;5.75;;;;;;;21.17;63.28;102767.78;4940205;28;20051;-67
2021/08/31 09:06:37;;;;;;;13.80;5.00;;;;;;;21.10;64.00;102765.44;4941561;28;20170;-67
2021/08/31 09:09:08;;;;;;;12.25;5.38;;;;;;;20.25;65.77;102772.72;4935881;28;20051;-68
2021/08/31 09:11:38;;;;;;;14.77;5.18;;;;;;;20.57;64.78;102774.97;4941065;28;20055;-68
2021/08/31 09:14:18;;;;;;;12.27;5.22;;;;;;;21.23;63.83;102769.31;4939739;28;20051;-68
2021/08/31 09:16:48;;;;;;;12.23;5.40;;;;;;;21.77;62.24;102764.06;4940077;28;20043;-70
2021/08/31 09:19:17;;;;;;;12.43;5.20;;;;;;;21.82;61.35;102767.44;4945883;28;20102;-70
2021/08/31 09:21:47;;;;;;;15.95;6.00;;;;;;;22.62;60.28;102779.72;4937787;28;20523;-68
2021/08/31 09:24:20;;;;;;;16.38;5.75;;;;;;;22.50;59.45;102767.63;4943194;28;20051;-68
2021/08/31 09:26:51;;;;;;;13.50;5.88;;;;;;;22.19;58.75;102768.31;4939371;28;20212;-67
2021/08/31 09:29:21;;;;;;;14.48;5.68;;;;;;;22.75;57.68;102769.94;4936165;28;20133;-69
2021/08/31 09:31:54;;;;;;;13.13;5.68;;;;;;;22.30;58.52;102771.38;4940664;28;20082;-71
2021/08/31 09:34:42;;;;;;;17.88;6.75;;;;;;;22.61;58.63;102774.34;4938373;28;20043;-71
2021/08/31 09:37:41;;;;;;;13.73;5.75;;;;;;;22.46;57.82;102770.59;4940672;28;20051;-69
2021/08/31 09:40:15;;;;;;;17.55;5.93;;;;;;;23.15;56.80;102769.66;4879912;29;20536;-71
2021/08/31 09:43:13;;;;;;;16.15;5.82;;;;;;;21.56;60.59;102779.59;4931174;28;20433;-69
2021/08/31 09:45:43;;;;;;;18.48;6.75;;;;;;;22.12;60.13;102784.06;4928280;28;20055;-69
2021/08/31 09:48:14;;;;;;;10.77;5.88;;;;;;;21.95;58.33;102778.59;4937589;28;20110;-70
2021/08/31 09:50:44;;;;;;;12.13;5.50;;;;;;;22.65;56.86;102775.97;4939637;28;20051;-70
2021/08/31 09:53:15;;;;;;;12.65;5.63;;;;;;;22.78;56.07;102776.19;4940466;28;20686;-71
2021/08/31 09:55:46;;;;;;;13.20;5.90;;;;;;;23.15;53.99;102772.38;4935956;28;20055;-70
2021/08/31 09:58:17;;;;;;;10.85;5.43;;;;;;;23.21;54.33;102773.91;4938853;28;20066;-72
2021/08/31 10:00:47;;;;;;;14.73;5.75;;;;;;;23.28;54.60;102764.41;4938269;28;20058;-72
2021/08/31 10:03:16;;;;;;;11.32;6.15;;;;;;;22.33;55.23;102776.66;4938634;28;20051;-70
2021/08/31 10:05:45;;;;;;;14.30;6.18;;;;;;;23.38;54.63;102767.47;4938151;28;20113;-70
2021/08/31 10:08:15;;;;;;;11.43;6.22;;;;;;;23.12;53.02;102772.53;4937724;28;20055;-70
2021/08/31 10:10:46;;;;;;;11.00;5.30;;;;;;;23.10;53.12;102772.66;4935340;28;20098;-70
2021/08/31 10:13:16;;;;;;;11.45;6.38;;;;;;;23.90;51.63;102770.00;4937959;28;20232;-70
2021/08/31 10:15:46;;;;;;;14.20;5.80;;;;;;;23.88;51.56;102771.06;4942084;28;20047;-71
2021/08/31 10:18:16;;;;;;;12.63;6.10;;;;;;;24.01;52.12;102770.25;4936457;28;20138;-72
2021/08/31 10:20:47;;;;;;;14.23;6.00;;;;;;;23.86;52.59;102782.91;4941065;28;20054;-70
2021/08/31 10:23:17;;;;;;;13.80;5.95;;;;;;;24.17;52.00;102778.38;4938323;28;20226;-70
2021/08/31 10:25:46;;;;;;;13.73;6.20;;;;;;;24.50;51.59;102776.47;4937687;28;20043;-71
2021/08/31 10:28:26;;;;;;;16.25;5.95;;;;;;;24.66;52.00;102784.63;4938170;28;20332;-70
2021/08/31 10:30:55;;;;;;;16.50;6.47;;;;;;;23.40;54.26;102785.50;4936774;28;20051;-70
2021/08/31 10:33:32;;;;;;;16.13;6.32;;;;;;;22.59;57.33;102789.88;4938852;28;20074;-71
2021/08/31 10:36:02;;;;;;;13.88;5.60;;;;;;;21.76;59.63;102789.47;4934245;28;20057;-71
2021/08/31 10:38:45;;;;;;;19.40;7.03;;;;;;;21.41;61.54;102797.44;4936836;28;20468;-70
2021/08/31 10:41:45;;;;;;;17.17;6.30;;;;;;;20.99;62.34;102804.75;4936430;28;20143;-71
2021/08/31 10:44:29;;;;;;;12.90;5.85;;;;;;;21.40;61.09;102802.00;4938234;28;20043;-71
2021/08/31 10:47:17;;;;;;;13.70;5.28;;;;;;;21.92;61.26;102801.34;4927075;28;20067;-71
2021/08/31 10:50:16;;;;;;;14.93;6.57;;;;;;;21.14;62.65;102796.91;4936724;28;20091;-71
2021/08/31 10:52:50;;;;;;;11.88;5.68;;;;;;;21.70;61.99;102800.66;4936095;28;20058;-71
2021/08/31 10:55:49;;;;;;;15.00;6.00;;;;;;;21.74;61.05;102802.25;4938274;28;20515;-70
2021/08/31 10:58:48;;;;;;;19.42;6.32;;;;;;;21.87;60.55;102797.97;4936142;28;20082;-70
2021/08/31 11:01:18;;;;;;;18.45;6.15;;;;;;;22.04;60.50;102793.56;4918297;28;20043;-70
2021/08/31 11:03:48;;;;;;;14.07;6.25;;;;;;;22.20;59.94;102798.16;4932566;28;20043;-70
2021/08/31 11:06:25;;;;;;;16.83;6.38;;;;;;;22.01;58.93;102798.19;4938125;28;20180;-71
2021/08/31 11:09:12;;;;;;;13.43;5.75;;;;;;;22.64;57.91;102802.28;4939148;28;20047;-71
2021/08/31 11:11:42;;;;;;;13.38;6.35;;;;;;;22.29;57.88;102807.72;4936438;28;20051;-70
2021/08/31 11:14:13;;;;;;;14.20;6.50;;;;;;;21.90;59.80;102805.97;4940978;28;20047;-70
2021/08/31 11:16:41;;;;;;;19.15;6.43;;;;;;;22.84;57.22;102808.53;4941645;28;20047;-70
2021/08/31 11:19:25;;;;;;;16.50;6.35;;;;;;;23.16;56.60;102808.66;4941168;28;20126;-70
2021/08/31 11:21:55;;;;;;;11.93;5.70;;;;;;;23.02;55.99;102812.09;4939908;28;20099;-70
2021/08/31 11:24:24;;;;;;;13.82;6.53;;;;;;;22.55;58.09;102808.19;4943403;28;21279;-70